createdAt,value
2023-12-20T00:00:58.951Z,5.79
2023-12-20T00:06:01.065Z,5.84
2023-12-20T00:11:03.246Z,5.82
2023-12-20T00:16:05.603Z,5.87
2023-12-20T00:21:07.577Z,6.01
2023-12-20T00:26:09.556Z,5.98
2023-12-20T00:31:11.677Z,6.03
2023-12-20T00:36:13.875Z,5.99
2023-12-20T00:41:15.806Z,5.98
2023-12-20T00:46:17.881Z,6.03
2023-12-20T00:51:20.135Z,6.02
2023-12-20T00:56:22.653Z,6.07
2023-12-20T01:01:24.697Z,6.00
2023-12-20T01:06:26.697Z,5.91
2023-12-20T01:11:28.997Z,5.95
2023-12-20T01:16:30.972Z,5.85
2023-12-20T01:21:32.926Z,5.88
2023-12-20T01:26:35.013Z,5.98
2023-12-20T01:31:37.043Z,6.01
2023-12-20T01:36:39.024Z,6.04
2023-12-20T01:41:41.384Z,6.04
2023-12-20T01:46:43.534Z,5.98
2023-12-20T01:51:46.255Z,6.03
2023-12-20T01:56:50.068Z,5.99
2023-12-20T02:01:52.172Z,5.96
2023-12-20T02:06:54.537Z,6.01
2023-12-20T02:11:56.645Z,5.98
2023-12-20T02:16:58.655Z,5.95
2023-12-20T02:22:11.537Z,5.98
2023-12-20T02:27:13.996Z,6.03
2023-12-20T02:32:16.728Z,6.14
2023-12-20T02:37:18.865Z,6.20
2023-12-20T02:42:20.864Z,6.08
2023-12-20T02:47:22.783Z,6.15
2023-12-20T02:52:26.060Z,6.13
2023-12-20T02:57:28.032Z,6.22
2023-12-20T03:02:29.976Z,6.36
2023-12-20T03:07:31.952Z,6.22
2023-12-20T03:12:33.925Z,6.22
2023-12-20T03:17:35.916Z,6.23
2023-12-20T03:22:37.866Z,6.24
2023-12-20T03:27:40.232Z,6.13
2023-12-20T03:32:42.234Z,6.07
2023-12-20T03:37:44.563Z,6.07
2023-12-20T03:42:47.120Z,6.10
2023-12-20T03:47:50.163Z,6.10
2023-12-20T03:52:52.433Z,6.01
2023-12-20T03:57:54.751Z,5.74
2023-12-20T04:02:56.756Z,5.66
2023-12-20T04:08:00.680Z,5.64
2023-12-20T04:13:02.708Z,5.46
2023-12-20T04:18:05.542Z,5.31
2023-12-20T04:23:07.649Z,5.23
2023-12-20T04:28:09.723Z,5.20
2023-12-20T04:33:11.716Z,5.14
2023-12-20T04:38:13.970Z,5.24
2023-12-20T04:43:15.974Z,5.46
2023-12-20T04:48:17.998Z,5.50
2023-12-20T04:53:19.998Z,5.52
2023-12-20T04:58:22.026Z,5.41
2023-12-20T05:03:24.158Z,5.41
2023-12-20T05:08:26.346Z,5.32
2023-12-20T05:13:37.847Z,5.32
2023-12-20T05:18:44.536Z,5.18
2023-12-20T05:23:46.884Z,5.08
2023-12-20T05:28:48.888Z,4.87
2023-12-20T05:33:51.403Z,5.05
2023-12-20T05:38:53.408Z,5.15
2023-12-20T05:43:55.366Z,5.05
2023-12-20T05:49:00.319Z,5.06
2023-12-20T05:54:02.580Z,4.94
2023-12-20T05:59:04.621Z,5.00
2023-12-20T06:04:06.729Z,4.90
2023-12-20T06:09:08.732Z,4.87
2023-12-20T06:14:10.711Z,4.97
2023-12-20T06:19:13.091Z,4.99
2023-12-20T06:24:15.152Z,5.05
2023-12-20T06:29:17.081Z,5.08
2023-12-20T06:34:19.297Z,4.92
2023-12-20T06:39:21.335Z,4.89
2023-12-20T06:44:23.281Z,4.96
2023-12-20T06:49:25.374Z,5.03
2023-12-20T06:54:27.435Z,5.17
2023-12-20T06:59:29.587Z,5.30
2023-12-20T07:04:31.650Z,5.33
2023-12-20T07:09:34.221Z,5.31
2023-12-20T07:14:36.216Z,5.32
2023-12-20T07:19:39.514Z,5.23
2023-12-20T07:24:41.590Z,5.29
2023-12-20T07:29:43.614Z,5.31
2023-12-20T07:34:45.903Z,5.36
2023-12-20T07:39:48.975Z,5.28
2023-12-20T07:44:51.182Z,5.18
2023-12-20T07:49:53.779Z,5.24
2023-12-20T07:54:56.195Z,5.31
2023-12-20T07:59:58.216Z,5.37
2023-12-20T08:05:00.178Z,5.19
2023-12-20T08:10:02.165Z,5.30
2023-12-20T08:15:05.360Z,5.42
2023-12-20T08:20:08.342Z,5.48
2023-12-20T08:25:10.605Z,5.53
2023-12-20T08:30:13.797Z,5.46
2023-12-20T08:35:15.906Z,5.42
2023-12-20T08:40:17.922Z,5.53
2023-12-20T08:45:19.946Z,5.57
2023-12-20T08:50:22.326Z,5.56
2023-12-20T08:55:24.376Z,5.68
2023-12-20T09:00:28.881Z,5.67
2023-12-20T09:05:31.360Z,5.88
2023-12-20T09:10:33.467Z,5.98
2023-12-20T09:15:37.109Z,5.91
2023-12-20T09:20:42.487Z,6.05
2023-12-20T09:25:46.127Z,6.11
2023-12-20T09:30:49.185Z,6.21
2023-12-20T09:35:51.394Z,6.42
2023-12-20T09:40:55.308Z,6.33
2023-12-20T09:51:06.367Z,6.29
2023-12-20T09:56:12.177Z,6.49
2023-12-20T10:01:17.685Z,6.50
2023-12-20T10:06:20.969Z,6.65
2023-12-20T10:11:23.293Z,6.91
2023-12-20T10:16:29.483Z,7.00
2023-12-20T10:21:31.830Z,7.15
2023-12-20T10:26:35.951Z,7.00
2023-12-20T10:31:40.093Z,7.08
2023-12-20T10:36:42.295Z,6.92
2023-12-20T10:41:49.285Z,7.10
2023-12-20T10:46:52.908Z,7.12
2023-12-20T10:51:58.562Z,7.15
2023-12-20T10:57:01.300Z,7.10
2023-12-20T11:02:08.035Z,7.03
2023-12-20T11:07:20.889Z,6.98
2023-12-20T11:12:38.229Z,6.87
2023-12-20T11:17:42.090Z,6.80
2023-12-20T11:22:54.626Z,6.78
2023-12-20T11:28:11.718Z,6.74
2023-12-20T11:33:22.696Z,6.79
2023-12-20T11:38:25.502Z,6.85
2023-12-20T11:43:37.707Z,6.80
2023-12-20T11:48:45.519Z,6.75
2023-12-20T11:53:58.412Z,6.79
2023-12-20T11:59:12.838Z,6.74
2023-12-20T12:04:24.373Z,6.68
2023-12-20T12:09:26.592Z,6.68
2023-12-20T12:14:28.719Z,6.59
2023-12-20T12:19:36.015Z,6.53
2023-12-20T12:24:38.801Z,6.51
2023-12-20T12:29:41.546Z,6.45
2023-12-20T12:34:43.758Z,6.63
2023-12-20T12:39:48.037Z,6.81
2023-12-20T12:44:50.101Z,6.83
2023-12-20T12:49:54.383Z,6.68
2023-12-20T12:54:56.432Z,6.82
2023-12-20T12:59:59.603Z,6.77
2023-12-20T13:05:03.928Z,6.80
2023-12-20T13:10:07.480Z,6.99
2023-12-20T13:15:10.664Z,6.97
2023-12-20T13:20:13.464Z,7.12
2023-12-20T13:25:16.962Z,6.86
2023-12-20T13:30:19.913Z,6.91
2023-12-20T13:35:27.006Z,7.07
2023-12-20T13:40:30.271Z,7.13
2023-12-20T13:45:33.786Z,7.23
2023-12-20T13:50:37.163Z,6.99
2023-12-20T13:55:39.537Z,6.94
2023-12-20T14:00:42.604Z,6.83
2023-12-20T14:05:48.771Z,6.77
2023-12-20T14:10:52.659Z,6.89
2023-12-20T14:15:57.200Z,6.97
2023-12-20T14:21:03.487Z,6.91
2023-12-20T14:26:06.055Z,6.92
2023-12-20T14:31:08.274Z,6.94
2023-12-20T14:36:10.509Z,6.95
2023-12-20T14:41:12.444Z,6.80
2023-12-20T14:46:14.557Z,6.84
2023-12-20T14:51:16.744Z,6.81
2023-12-20T14:56:18.672Z,6.80
2023-12-20T15:01:24.598Z,6.77
2023-12-20T15:06:26.960Z,6.77
2023-12-20T15:11:29.764Z,6.71
2023-12-20T15:16:31.893Z,6.84
2023-12-20T15:21:42.926Z,6.77
2023-12-20T15:26:47.756Z,6.84
2023-12-20T15:31:50.165Z,6.82
2023-12-20T15:36:52.356Z,6.77
2023-12-20T15:41:54.570Z,6.60
2023-12-20T15:46:56.565Z,6.58
2023-12-20T15:51:58.612Z,6.56
2023-12-20T15:57:00.586Z,6.41
2023-12-20T16:02:04.011Z,6.46
2023-12-20T16:07:06.144Z,6.40
2023-12-20T16:12:08.888Z,6.37
2023-12-20T16:17:10.998Z,6.35
2023-12-20T16:22:13.073Z,6.34
2023-12-20T16:27:15.103Z,6.27
2023-12-20T16:32:17.196Z,6.47
2023-12-20T16:37:19.824Z,6.48
2023-12-20T16:42:21.968Z,6.48
2023-12-20T16:47:24.075Z,6.57
2023-12-20T16:52:26.047Z,6.37
2023-12-20T16:57:28.115Z,6.49
2023-12-20T17:02:30.046Z,6.33
2023-12-20T17:07:32.222Z,6.43
2023-12-20T17:12:34.372Z,6.55
2023-12-20T17:17:37.123Z,6.43
2023-12-20T17:22:42.414Z,6.52
2023-12-20T17:27:46.919Z,6.58
2023-12-20T17:32:51.134Z,6.47
2023-12-20T17:37:53.564Z,6.15
2023-12-20T17:42:57.301Z,6.10
2023-12-20T17:47:59.288Z,6.13
2023-12-20T17:53:01.352Z,6.01
2023-12-20T17:58:03.385Z,6.16
2023-12-20T18:03:06.066Z,6.08
2023-12-20T18:08:08.351Z,6.15
2023-12-20T18:13:10.496Z,6.06
2023-12-20T18:18:12.917Z,6.09
2023-12-20T18:23:16.048Z,6.27
2023-12-20T18:28:19.679Z,6.25
2023-12-20T18:33:22.987Z,6.32
2023-12-20T18:38:30.126Z,6.42
2023-12-20T18:43:32.372Z,6.37
2023-12-20T18:48:35.219Z,6.45
2023-12-20T18:53:37.908Z,6.49
2023-12-20T18:58:40.750Z,6.60
2023-12-20T19:03:43.455Z,6.55
2023-12-20T19:08:51.281Z,6.60
2023-12-20T19:13:53.494Z,6.59
2023-12-20T19:18:55.549Z,6.66
2023-12-20T19:23:58.441Z,6.70
2023-12-20T19:29:00.968Z,6.65
2023-12-20T19:34:03.915Z,6.80
2023-12-20T19:39:08.935Z,6.75
2023-12-20T19:44:11.704Z,6.87
2023-12-20T19:49:13.877Z,6.84
2023-12-20T19:54:16.226Z,6.85
2023-12-20T19:59:19.689Z,6.91
2023-12-20T20:04:21.784Z,6.97
2023-12-20T20:09:23.920Z,6.95
2023-12-20T20:14:28.341Z,7.02
2023-12-20T20:19:31.351Z,6.99
2023-12-20T20:24:33.425Z,7.06
2023-12-20T20:29:35.634Z,7.08
2023-12-20T20:34:37.723Z,6.95
2023-12-20T20:39:40.573Z,7.15
2023-12-20T20:44:45.309Z,7.26
2023-12-20T20:49:47.466Z,7.10
2023-12-20T20:54:49.619Z,6.98
2023-12-20T20:59:51.724Z,6.99
2023-12-20T21:04:53.780Z,7.07
2023-12-20T21:09:56.400Z,7.08
2023-12-20T21:14:58.562Z,7.17
2023-12-20T21:20:00.811Z,7.23
2023-12-20T21:25:03.039Z,7.26
2023-12-20T21:30:08.407Z,7.15
2023-12-20T21:35:10.461Z,7.17
2023-12-20T21:40:12.742Z,7.19
2023-12-20T21:45:14.749Z,7.03
2023-12-20T21:50:17.354Z,7.06
2023-12-20T21:55:19.317Z,7.00
2023-12-20T22:00:21.472Z,7.10
2023-12-20T22:05:23.580Z,7.06
2023-12-20T22:10:25.566Z,7.11
2023-12-20T22:15:28.009Z,7.09
2023-12-20T22:20:32.232Z,7.27
2023-12-20T22:25:34.623Z,7.29
2023-12-20T22:30:36.756Z,7.18
2023-12-20T22:35:38.735Z,7.26
2023-12-20T22:40:40.878Z,7.33
2023-12-20T22:45:44.358Z,7.49
2023-12-20T22:50:46.321Z,7.53
2023-12-20T22:55:48.290Z,7.48
2023-12-20T23:00:51.354Z,7.50
2023-12-20T23:05:53.422Z,7.44
2023-12-20T23:10:55.855Z,7.39
2023-12-20T23:15:58.425Z,7.35
2023-12-20T23:21:01.096Z,7.42
2023-12-20T23:26:03.152Z,7.48
2023-12-20T23:31:05.263Z,7.41
2023-12-20T23:36:07.673Z,7.22
2023-12-20T23:41:09.633Z,7.25
2023-12-20T23:46:12.111Z,7.16
2023-12-20T23:51:14.160Z,7.23
2023-12-20T23:56:23.716Z,7.15
